This is the latest recevied weather packets stored in our database for station/object KB1FFS. If no packets are shown the sender has not sent any weather packets the latest 10 day(s).
| Time | Temp. | Humidity | Pressure | Rain* | Wind** | Luminosity | Snow |
|---|---|---|---|---|---|---|---|
| 1777499821 | 17.22° C | 72% | 1015.2 hPa | 0 mm | - | 34 W/m² | - |
| 1777499517 | 17.78° C | 71% | 1014.9 hPa | 0 mm | - | 36 W/m² | - |
| 1777498304 | 18.33° C | 70% | 1014.7 hPa | 0 mm | - | 79 W/m² | - |
| 1777497699 | 18.33° C | 70% | 1013.8 hPa | 0 mm | - | 275 W/m² | - |
| 1777496486 | 18.33° C | 70% | 1014.5 hPa | 0 mm | - | 118 W/m² | - |
| 1777495878 | 18.33° C | 71% | 1014.6 hPa | 0 mm | - | 119 W/m² | - |
| 1777494362 | 18.33° C | 69% | 1014.9 hPa | 0 mm | - | 307 W/m² | - |
| 1777494058 | 18.33° C | 69% | 1015.3 hPa | 0 mm | - | 169 W/m² | - |
| 1777492543 | 20° C | 67% | 1015.6 hPa | 0 mm | - | 272 W/m² | - |
| 1777492239 | 19.44° C | 68% | 1015.9 hPa | 0 mm | - | 282 W/m² | - |
| 1777491330 | 17.78° C | 72% | 1016.2 hPa | 0 mm | - | 296 W/m² | - |
| 1777490722 | 17.78° C | 72% | 1016.5 hPa | 0 mm | - | 186 W/m² | - |
| 1777488601 | 17.78° C | 73% | 1016.1 hPa | 0 mm | - | 212 W/m² | - |
| 1777487391 | 18.33° C | 72% | 1016.5 hPa | 0 mm | - | 191 W/m² | - |
| 1777484662 | 17.22° C | 76% | 1017.3 hPa | 0 mm | - | 136 W/m² | - |
| 1777484358 | 16.67° C | 74% | 1017.6 hPa | 0 mm | - | 96 W/m² | - |
| 1777483751 | 16.67° C | 77% | 1017.6 hPa | 0 mm | - | 116 W/m² | - |
| 1777483142 | 16.67° C | 75% | 1017.7 hPa | 0 mm | - | 70 W/m² | - |
| 1777482840 | 16.67° C | 76% | 1017.7 hPa | 0 mm | - | 106 W/m² | - |
| 1777482535 | 16.67° C | 76% | 1017.3 hPa | 0 mm | - | 125 W/m² | - |
| 1777481930 | 16.67° C | 76% | 1017.5 hPa | 0 mm | - | 89 W/m² | - |
| 1777480717 | 16.67° C | 75% | 1017.4 hPa | 0 mm | - | 80 W/m² | - |
| 1777480414 | 16.67° C | 75% | 1017.8 hPa | 0 mm | - | 105 W/m² | - |
| 1777480110 | 16.67° C | 76% | 1016.4 hPa | 0 mm | - | 246 W/m² | - |
| 1777479807 | 16.67° C | 76% | 1017.1 hPa | 0 mm | - | 190 W/m² | - |
* Rain latest hour (hover to see other rain measurements)
** Current wind speed in m/s (hover to see current wind gust speed)